New Westminster, Canada
Current Conditions -  °F | °C
As of 7:14 PM on Wednesday 22 Oct 2014 (Local Time) from CYVR Reporting Station
Heavy Rain Heavy Rain  
Wind Chill: 54°   Ceiling: 500
Heat Index: 54°   Visibility: 6mi
Dew Point: 52°   Wind: 13mph
Humidity: 94%   Direction: 80°E
Pressure: 29.51"   Gusts: NA
Location:  49.21°N, 122.91°W
Report Text: CYVR 230214Z 08011KT 6SM +RA BR BKN005 OVC009 12/11 A2951 RMK SF5SC3 SLP993
Loading
Personal Weather Stations






























Interactive Weather Map
Tropical Storm Tracking
New forecast layout! Learn more

10-Day Weather Forecast

Advertisements
Track Severe Weather on mobile